Time;durP1;ratioP1;P1;durP2;ratioP2;P2;SDS_P1;SDS_P2;PMS_P1;PMS_P2;Temp;Humidity;BMP_temperature;BMP_pressure;BME280_temperature;BME280_humidity;BME280_pressure;Samples;Min_cycle;Max_cycle;Signal;HPM_P1;HPM_P2
2022/10/20 00:00:38;;;;;;;104.07;62.45;;;;;;;23.55;67.02;98619.75;5012294;28;20051;-70
2022/10/20 00:03:35;;;;;;;97.75;59.63;;;;;;;23.61;66.51;98615.81;4946702;28;20047;-70
2022/10/20 00:06:12;;;;;;;99.88;60.60;;;;;;;23.37;67.50;98620.63;4945811;28;20770;-69
2022/10/20 00:09:04;;;;;;;94.88;62.33;;;;;;;23.47;67.30;98614.19;4945623;28;20059;-70
2022/10/20 00:11:46;;;;;;;92.13;59.85;;;;;;;23.36;67.81;98619.03;5046346;28;20056;-69
2022/10/20 00:14:35;;;;;;;100.68;59.95;;;;;;;23.75;66.10;98634.19;5066094;28;20110;-69
2022/10/20 00:17:24;;;;;;;96.80;60.53;;;;;;;23.28;67.58;98633.41;5042955;28;20044;-69
2022/10/20 00:20:13;;;;;;;94.53;59.55;;;;;;;23.57;67.00;98635.91;5050134;27;20106;-71
2022/10/20 00:23:02;;;;;;;100.60;61.65;;;;;;;23.64;66.68;98625.38;5042264;28;20049;-69
2022/10/20 00:25:45;;;;;;;98.00;60.08;;;;;;;23.51;66.88;98632.44;5026223;28;20132;-70
2022/10/20 00:28:34;;;;;;;100.90;59.67;;;;;;;23.58;66.68;98635.59;5025669;28;20103;-70
2022/10/20 00:31:18;;;;;;;106.50;60.92;;;;;;;23.42;66.89;98636.97;5027638;28;20049;-69
2022/10/20 00:34:07;;;;;;;108.88;60.88;;;;;;;23.33;67.31;98641.50;5042886;28;20045;-70
2022/10/20 00:36:49;;;;;;;106.75;60.25;;;;;;;23.61;66.45;98640.47;5029702;28;20056;-70
2022/10/20 00:39:38;;;;;;;89.68;58.20;;;;;;;23.49;67.26;98651.09;5044857;28;20056;-70
2022/10/20 00:42:21;;;;;;;100.55;61.10;;;;;;;23.11;67.93;98653.91;5045214;28;20455;-71
2022/10/20 00:45:17;;;;;;;88.38;57.33;;;;;;;23.69;66.73;98649.09;5045192;28;20427;-69
2022/10/20 00:48:12;;;;;;;94.13;58.13;;;;;;;23.71;66.61;98657.84;5039523;28;20534;-70
2022/10/20 00:51:01;;;;;;;86.28;57.60;;;;;;;23.40;67.25;98650.16;5025705;28;20049;-69
2022/10/20 00:53:52;;;;;;;94.93;58.50;;;;;;;22.96;68.44;98648.66;5025725;28;20049;-70
2022/10/20 00:56:51;;;;;;;102.18;59.80;;;;;;;23.40;67.73;98650.16;5020836;28;20059;-69
2022/10/20 00:59:32;;;;;;;93.00;58.28;;;;;;;23.17;68.29;98651.91;5045276;28;20115;-69
2022/10/20 01:02:28;;;;;;;92.82;57.47;;;;;;;23.13;68.39;98659.09;5044732;28;20044;-70
2022/10/20 01:05:04;;;;;;;95.65;58.75;;;;;;;23.25;68.22;98654.81;5011976;28;20049;-70
2022/10/20 01:07:53;;;;;;;103.18;59.55;;;;;;;22.76;69.35;98661.53;5045512;28;20111;-71
2022/10/20 01:10:45;;;;;;;92.32;58.65;;;;;;;23.37;67.79;98673.50;5045182;28;20056;-70
2022/10/20 01:13:52;;;;;;;102.90;62.40;;;;;;;22.75;69.67;98680.97;5045187;28;20041;-71
2022/10/20 01:16:48;;;;;;;97.63;58.83;;;;;;;22.96;68.70;98670.56;5044964;28;20056;-71
2022/10/20 01:20:00;;;;;;;103.78;62.83;;;;;;;23.31;68.02;98682.06;5044525;28;20056;-71
2022/10/20 01:22:54;;;;;;;96.70;60.97;;;;;;;23.19;67.73;98680.59;5024901;28;20484;-70
2022/10/20 01:26:01;;;;;;;97.97;60.33;;;;;;;23.55;66.79;98680.03;5010079;28;20057;-70
2022/10/20 01:29:08;;;;;;;98.20;63.20;;;;;;;23.03;68.32;98676.50;5026709;28;20052;-70
2022/10/20 01:32:31;;;;;;;112.97;65.07;;;;;;;23.26;67.94;98680.25;5029081;28;20053;-70
2022/10/20 01:35:38;;;;;;;100.72;61.30;;;;;;;23.21;67.72;98678.38;5029984;28;20052;-70
2022/10/20 01:38:40;;;;;;;103.47;65.05;;;;;;;23.28;67.70;98678.03;5028978;28;20053;-71
2022/10/20 01:42:06;;;;;;;108.32;64.03;;;;;;;23.37;67.65;98687.19;5038107;28;20049;-71
2022/10/20 01:44:51;;;;;;;106.55;63.08;;;;;;;23.60;66.83;98695.59;5041796;28;20037;-71
2022/10/20 01:47:42;;;;;;;99.85;62.83;;;;;;;23.40;68.86;98691.25;5048444;28;20049;-69
2022/10/20 01:50:35;;;;;;;103.97;62.80;;;;;;;23.48;67.70;98690.56;5047723;28;20191;-69
2022/10/20 01:53:26;;;;;;;95.22;60.22;;;;;;;23.79;66.88;98695.56;5048353;28;20053;-69
2022/10/20 01:56:17;;;;;;;90.97;58.75;;;;;;;23.68;67.42;98699.56;5048761;28;20048;-69
2022/10/20 01:59:27;;;;;;;86.97;58.45;;;;;;;23.91;66.06;98689.59;5048842;28;20049;-69
2022/10/20 02:02:22;;;;;;;94.60;56.88;;;;;;;23.78;66.46;98691.97;5048137;28;20056;-69
2022/10/20 02:05:45;;;;;;;90.55;57.40;;;;;;;23.85;65.96;98691.59;5041047;28;20129;-69
2022/10/20 02:08:56;;;;;;;100.70;56.33;;;;;;;24.24;64.99;98698.53;5030607;28;20049;-70
2022/10/20 02:12:07;;;;;;;85.25;55.25;;;;;;;24.05;65.77;98695.88;5038207;28;20480;-69
2022/10/20 02:14:52;;;;;;;88.97;55.15;;;;;;;23.89;66.48;98703.59;5045636;28;20131;-69
2022/10/20 02:17:51;;;;;;;83.25;53.20;;;;;;;23.75;66.25;98713.66;5040809;28;20512;-69
2022/10/20 02:20:40;;;;;;;87.15;54.03;;;;;;;23.72;67.04;98719.75;5052770;28;20589;-69
2022/10/20 02:23:38;;;;;;;84.00;54.30;;;;;;;23.96;66.00;98714.97;5069155;28;20687;-70
2022/10/20 02:26:18;;;;;;;89.90;55.58;;;;;;;23.92;66.54;98722.19;5068881;28;20408;-69
2022/10/20 02:29:28;;;;;;;95.28;57.25;;;;;;;23.74;67.22;98729.28;5061579;28;20100;-70
2022/10/20 02:32:04;;;;;;;92.60;55.90;;;;;;;23.72;67.20;98725.25;5049650;28;20045;-70
2022/10/20 02:34:59;;;;;;;89.72;57.40;;;;;;;23.89;66.35;98730.19;5069907;28;20735;-69
2022/10/20 02:37:40;;;;;;;99.57;56.57;;;;;;;23.90;66.28;98723.56;5069254;28;20055;-69
2022/10/20 02:40:36;;;;;;;85.30;54.45;;;;;;;24.10;66.47;98728.69;5068341;28;20283;-70
2022/10/20 02:43:12;;;;;;;83.63;54.78;;;;;;;24.42;65.95;98729.72;5069013;28;20053;-69
2022/10/20 02:46:01;;;;;;;92.53;55.75;;;;;;;23.94;66.66;98738.28;5069083;28;20044;-70
2022/10/20 02:48:50;;;;;;;91.75;53.08;;;;;;;24.30;65.94;98735.69;5069002;28;20052;-69
2022/10/20 02:51:39;;;;;;;85.18;54.90;;;;;;;24.27;65.23;98744.56;5068815;28;20113;-69
2022/10/20 02:54:28;;;;;;;86.47;53.85;;;;;;;24.48;65.00;98744.16;5069202;28;20044;-69
2022/10/20 02:57:10;;;;;;;93.22;58.08;;;;;;;24.56;65.01;98758.00;5069073;28;20036;-70
2022/10/20 02:59:59;;;;;;;96.68;51.40;;;;;;;24.48;65.38;98753.19;5069384;28;20064;-69
2022/10/20 03:02:48;;;;;;;92.88;55.53;;;;;;;24.37;65.29;98766.28;5068859;28;20106;-69
2022/10/20 03:05:30;;;;;;;85.15;52.13;;;;;;;24.34;65.47;98768.81;5068213;28;20075;-69
2022/10/20 03:08:20;;;;;;;84.85;53.80;;;;;;;24.35;65.25;98770.47;5068436;28;20060;-69
2022/10/20 03:11:10;;;;;;;79.22;50.58;;;;;;;24.64;64.47;98781.16;5067742;28;20048;-69
2022/10/20 03:14:05;;;;;;;96.28;52.55;;;;;;;24.35;65.01;98775.94;5068499;28;20479;-69
2022/10/20 03:16:40;;;;;;;97.47;53.33;;;;;;;24.76;63.67;98781.47;5068026;28;20044;-69
2022/10/20 03:19:29;;;;;;;86.22;50.60;;;;;;;24.69;64.19;98781.06;5054366;28;20428;-69
2022/10/20 03:22:24;;;;;;;84.63;49.85;;;;;;;24.88;63.75;98785.59;5049649;27;20115;-69
2022/10/20 03:24:59;;;;;;;82.22;51.38;;;;;;;25.10;63.71;98801.34;5047865;28;20069;-70
2022/10/20 03:27:54;;;;;;;92.10;53.28;;;;;;;25.42;62.79;98792.16;5047014;28;20049;-69
2022/10/20 03:30:29;;;;;;;87.78;51.55;;;;;;;25.38;62.93;98796.63;5047454;28;20048;-70
2022/10/20 03:33:25;;;;;;;93.13;53.33;;;;;;;25.50;62.29;98807.88;5057095;28;20198;-70
2022/10/20 03:36:01;;;;;;;91.78;46.83;;;;;;;25.17;62.45;98802.56;5056950;28;20044;-70
2022/10/20 03:38:50;;;;;;;90.57;49.00;;;;;;;25.47;61.67;98807.69;5056899;28;20048;-70
2022/10/20 03:41:39;;;;;;;78.10;48.42;;;;;;;25.35;62.77;98810.97;5067656;28;20156;-69
2022/10/20 03:44:21;;;;;;;94.38;46.40;;;;;;;25.30;61.74;98813.84;5067600;28;20048;-69
2022/10/20 03:47:10;;;;;;;78.75;46.60;;;;;;;25.32;62.52;98815.16;5067994;28;20068;-70
2022/10/20 03:49:59;;;;;;;80.43;44.42;;;;;;;25.17;62.72;98815.47;4961869;28;20047;-70
2022/10/20 03:52:48;;;;;;;74.47;42.78;;;;;;;25.43;62.03;98815.72;5059317;28;20110;-69
2022/10/20 03:55:37;;;;;;;77.60;43.72;;;;;;;25.55;61.17;98816.00;4959310;28;20059;-69
2022/10/20 03:58:26;;;;;;;74.50;44.50;;;;;;;25.31;61.47;98818.22;5067233;28;20059;-69
2022/10/20 04:01:14;;;;;;;72.72;43.15;;;;;;;26.16;60.56;98815.69;4966446;28;20405;-67
2022/10/20 04:04:04;;;;;;;67.53;42.92;;;;;;;26.13;59.73;98816.28;4951069;28;20051;-67
2022/10/20 04:06:46;;;;;;;71.47;43.63;;;;;;;25.95;60.44;98810.69;5046468;28;20053;-69
2022/10/20 04:09:35;;;;;;;69.28;41.25;;;;;;;26.31;60.63;98817.19;5029626;28;20057;-69
2022/10/20 04:12:17;;;;;;;69.70;40.72;;;;;;;26.04;59.32;98818.16;4965224;28;20143;-69
2022/10/20 04:15:07;;;;;;;68.72;40.72;;;;;;;26.10;58.92;98817.75;5066551;28;20105;-69
2022/10/20 04:17:49;;;;;;;80.03;41.25;;;;;;;25.78;60.35;98824.28;5059603;28;20675;-70
2022/10/20 04:20:38;;;;;;;73.18;41.03;;;;;;;26.14;59.06;98826.19;5065568;28;20186;-69
2022/10/20 04:23:33;;;;;;;63.65;38.17;;;;;;;26.05;59.16;98826.13;5065050;28;20047;-71
2022/10/20 04:26:11;;;;;;;62.83;38.72;;;;;;;26.32;59.74;98827.88;5064824;28;20056;-69
2022/10/20 04:29:01;;;;;;;69.05;39.25;;;;;;;26.56;57.77;98819.28;5066443;28;20048;-71
2022/10/20 04:31:43;;;;;;;64.70;39.22;;;;;;;26.49;57.58;98831.88;5066551;28;20072;-71
2022/10/20 04:34:32;;;;;;;61.53;35.90;;;;;;;26.60;57.61;98824.97;4947981;28;20059;-70
2022/10/20 04:37:14;;;;;;;62.55;38.13;;;;;;;26.97;56.79;98827.53;5042915;28;20106;-70
2022/10/20 04:40:03;;;;;;;68.50;35.55;;;;;;;26.62;57.31;98830.16;5058546;28;20055;-70
2022/10/20 04:42:45;;;;;;;53.80;35.45;;;;;;;26.53;57.79;98839.16;5057086;28;20393;-71
2022/10/20 04:45:41;;;;;;;61.38;35.35;;;;;;;27.01;55.69;98829.31;5039510;28;20080;-70
2022/10/20 04:48:16;;;;;;;55.05;35.72;;;;;;;27.28;56.20;98822.75;4965053;28;20062;-70
2022/10/20 04:51:08;;;;;;;63.70;34.28;;;;;;;27.69;56.41;98826.19;5066910;28;20106;-71
2022/10/20 04:53:52;;;;;;;61.72;35.05;;;;;;;27.92;54.31;98827.66;4965289;28;20051;-69
2022/10/20 04:56:41;;;;;;;61.95;33.53;;;;;;;28.13;54.02;98832.50;5065147;28;20513;-69
2022/10/20 04:59:23;;;;;;;62.67;33.35;;;;;;;28.01;54.28;98843.38;5047966;28;20155;-69
2022/10/20 05:02:12;;;;;;;63.13;33.75;;;;;;;28.49;54.01;98836.78;5064860;28;20060;-69
2022/10/20 05:05:01;;;;;;;68.97;32.53;;;;;;;28.54;52.13;98853.19;5066532;28;20487;-70
2022/10/20 05:07:50;;;;;;;50.75;31.58;;;;;;;28.31;53.26;98853.38;5066618;28;20632;-68
2022/10/20 05:10:35;;;;;;;56.70;30.85;;;;;;;28.68;52.10;98864.84;5066675;28;20471;-70
2022/10/20 05:13:30;;;;;;;49.30;31.83;;;;;;;28.98;49.69;98881.44;4963881;28;20078;-69
2022/10/20 05:16:19;;;;;;;57.10;30.80;;;;;;;28.73;52.22;98879.63;5047519;28;20139;-69
2022/10/20 05:19:08;;;;;;;54.10;31.23;;;;;;;28.79;52.25;98883.81;5045625;28;20403;-67
2022/10/20 05:21:50;;;;;;;58.53;31.85;;;;;;;28.59;51.00;98886.16;5048076;28;20461;-68
2022/10/20 05:24:39;;;;;;;49.63;31.23;;;;;;;28.33;51.81;98882.63;5049789;28;20068;-72
2022/10/20 05:27:21;;;;;;;59.17;30.30;;;;;;;28.31;52.15;98880.97;5047316;28;20098;-72
2022/10/20 05:30:10;;;;;;;56.80;31.42;;;;;;;29.22;50.74;98869.00;5049796;28;20044;-71
2022/10/20 05:32:52;;;;;;;50.83;29.92;;;;;;;29.25;50.71;98860.88;5064224;28;20052;-69
2022/10/20 05:35:41;;;;;;;57.78;29.98;;;;;;;29.31;50.33;98855.94;5063494;28;20064;-71
2022/10/20 05:38:23;;;;;;;51.33;29.77;;;;;;;30.06;49.52;98852.44;5045894;28;20094;-70
2022/10/20 05:41:30;;;;;;;60.10;30.20;;;;;;;30.10;48.00;98853.38;5037797;28;20044;-71
2022/10/20 05:44:19;;;;;;;57.75;30.88;;;;;;;29.47;48.48;98859.72;5044893;28;20060;-71
2022/10/20 05:47:08;;;;;;;52.28;28.50;;;;;;;30.46;46.52;98860.22;5043778;28;20048;-70
2022/10/20 05:50:03;;;;;;;54.78;30.13;;;;;;;30.64;49.93;98853.28;5045207;28;20053;-71
2022/10/20 05:52:38;;;;;;;52.72;30.30;;;;;;;30.31;47.40;98856.09;5046238;28;20060;-74
2022/10/20 05:55:34;;;;;;;45.40;29.67;;;;;;;30.19;47.95;98848.56;5028394;28;20114;-74
2022/10/20 05:58:09;;;;;;;49.40;28.65;;;;;;;30.04;47.24;98851.97;5064914;28;20060;-72
2022/10/20 06:01:23;;;;;;;47.47;28.30;;;;;;;30.75;49.58;98850.88;5066173;28;20123;-71
2022/10/20 06:04:00;;;;;;;51.03;28.85;;;;;;;29.98;48.00;98845.84;5060049;28;20060;-71
2022/10/20 06:06:57;;;;;;;55.20;29.73;;;;;;;29.65;48.38;98848.53;5046637;28;20048;-71
2022/10/20 06:09:32;;;;;;;49.30;29.35;;;;;;;30.48;47.35;98846.81;4945972;28;20061;-72
2022/10/20 06:12:27;;;;;;;57.55;29.10;;;;;;;30.20;46.24;98844.63;5045814;28;20061;-71
2022/10/20 06:15:03;;;;;;;51.67;28.80;;;;;;;30.35;46.95;98842.41;5043985;28;20061;-74
2022/10/20 06:17:52;;;;;;;52.20;28.05;;;;;;;31.34;45.34;98832.97;5049617;28;20052;-73
2022/10/20 06:20:41;;;;;;;44.05;28.33;;;;;;;31.10;46.92;98839.34;5063727;28;20685;-74
2022/10/20 06:23:36;;;;;;;46.42;28.25;;;;;;;31.04;45.63;98843.53;5029085;28;20088;-74
2022/10/20 06:26:31;;;;;;;49.70;28.02;;;;;;;30.90;45.68;98843.06;5043798;28;20080;-72
2022/10/20 06:29:23;;;;;;;53.90;29.38;;;;;;;31.16;44.61;98846.28;5048242;28;20065;-73
2022/10/20 06:32:12;;;;;;;52.75;27.85;;;;;;;30.77;47.57;98845.00;5047756;28;20114;-72
2022/10/20 06:35:01;;;;;;;48.65;26.85;;;;;;;31.23;46.06;98840.16;5032327;28;20041;-72
2022/10/20 06:37:50;;;;;;;44.47;27.13;;;;;;;30.98;45.63;98844.94;5028660;28;20473;-71
2022/10/20 06:40:32;;;;;;;60.38;28.50;;;;;;;30.50;46.81;98840.94;4994940;28;20039;-72
2022/10/20 06:43:21;;;;;;;56.47;28.75;;;;;;;30.99;46.44;98839.03;4967656;28;20051;-72
2022/10/20 06:46:10;;;;;;;62.90;29.13;;;;;;;30.54;44.47;98844.63;4943152;28;20067;-72
2022/10/20 06:49:07;;;;;;;53.97;28.02;;;;;;;29.84;46.83;98835.03;4930429;29;20555;-71
2022/10/20 06:51:42;;;;;;;49.15;27.40;;;;;;;30.76;44.96;98844.19;4932136;29;20142;-71
2022/10/20 06:54:24;;;;;;;52.55;27.95;;;;;;;30.22;45.75;98847.88;4950085;28;20071;-71
2022/10/20 06:57:13;;;;;;;53.97;28.17;;;;;;;30.48;44.61;98852.34;4962611;28;20378;-71
2022/10/20 06:59:55;;;;;;;49.40;28.98;;;;;;;30.32;45.29;98854.16;4935308;28;20066;-71
2022/10/20 07:02:44;;;;;;;55.17;28.88;;;;;;;30.72;46.09;98850.75;4994405;28;20071;-72
2022/10/20 07:05:26;;;;;;;49.17;27.67;;;;;;;30.60;45.17;98846.81;4947341;28;20043;-72
2022/10/20 07:08:15;;;;;;;47.47;27.20;;;;;;;30.62;45.81;98846.50;4947218;28;20152;-73
2022/10/20 07:11:09;;;;;;;54.15;29.55;;;;;;;30.42;45.15;98848.16;4957795;28;20055;-72
2022/10/20 07:13:59;;;;;;;60.08;28.08;;;;;;;30.52;44.77;98836.66;4991026;28;20050;-73
2022/10/20 07:16:41;;;;;;;;;;;;;;;30.22;46.28;98833.22;4951040;28;20104;-73
2022/10/20 07:19:30;;;;;;;57.80;35.38;;;;;;;30.28;48.20;98833.81;4953725;28;20569;-72
2022/10/20 07:22:25;;;;;;;79.35;35.72;;;;;;;30.32;50.42;98821.72;5007267;28;20049;-72
2022/10/20 07:25:15;;;;;;;70.65;37.15;;;;;;;30.08;51.97;98824.41;4946471;28;20078;-72
2022/10/20 07:28:04;;;;;;;75.78;34.83;;;;;;;30.05;51.95;98814.84;5007792;28;20057;-72
2022/10/20 07:30:59;;;;;;;80.25;35.03;;;;;;;29.59;53.18;98817.50;5048126;28;20156;-71
2022/10/20 07:33:35;;;;;;;76.38;37.47;;;;;;;29.02;53.60;98807.78;5048247;28;20060;-73
2022/10/20 07:36:26;;;;;;;78.20;36.03;;;;;;;29.24;53.74;98816.97;5047461;28;20380;-73
2022/10/20 07:39:18;;;;;;;71.93;33.53;;;;;;;29.26;52.92;98825.72;5047413;28;20496;-71
2022/10/20 07:42:07;;;;;;;74.25;33.42;;;;;;;28.73;53.19;98813.34;5044449;28;20109;-73
2022/10/20 07:44:56;;;;;;;79.00;33.42;;;;;;;28.62;53.54;98824.72;5064861;28;20617;-72
2022/10/20 07:47:38;;;;;;;80.95;41.67;;;;;;;27.94;55.55;98827.34;5064696;28;20110;-73
2022/10/20 07:50:27;;;;;;;89.68;42.50;;;;;;;28.50;54.27;98824.59;5065356;28;20059;-72
2022/10/20 07:53:09;;;;;;;67.50;40.38;;;;;;;28.26;54.42;98816.88;5064337;28;20083;-71
2022/10/20 07:55:58;;;;;;;72.93;37.40;;;;;;;28.58;53.63;98820.22;5048627;28;20052;-72
2022/10/20 07:58:40;;;;;;;74.35;36.47;;;;;;;28.46;51.38;98816.16;5025145;28;20067;-72
2022/10/20 08:01:29;;;;;;;72.68;36.15;;;;;;;28.10;51.60;98805.56;5059472;28;20640;-72
2022/10/20 08:04:12;;;;;;;78.70;36.28;;;;;;;28.15;51.96;98804.59;5060008;28;20137;-71
2022/10/20 08:07:01;;;;;;;74.70;34.92;;;;;;;27.67;52.67;98803.66;5061108;28;20044;-71
2022/10/20 08:09:43;;;;;;;69.90;34.75;;;;;;;28.25;50.64;98793.19;5044913;28;20052;-71
2022/10/20 08:12:32;;;;;;;63.85;33.20;;;;;;;27.87;50.71;98794.69;5041417;28;20033;-71
2022/10/20 08:15:15;;;;;;;66.10;33.28;;;;;;;27.67;50.08;98789.88;5043170;28;20059;-71
2022/10/20 08:18:04;;;;;;;60.60;33.97;;;;;;;27.33;50.63;98788.72;5030573;28;20045;-72
2022/10/20 08:20:46;;;;;;;62.47;33.45;;;;;;;27.94;49.25;98793.44;5046565;28;20086;-72
2022/10/20 08:23:45;;;;;;;85.72;31.33;;;;;;;28.56;49.71;98792.94;5040087;28;20048;-72
2022/10/20 08:26:23;;;;;;;67.88;22.17;;;;;;;28.34;50.83;98798.66;5042334;28;20048;-72
2022/10/20 08:29:18;;;;;;;69.85;21.60;;;;;;;28.26;50.52;98798.38;5024039;28;20135;-72
2022/10/20 08:31:54;;;;;;;65.40;22.02;;;;;;;27.82;50.69;98797.66;5024496;28;20110;-71
2022/10/20 08:34:49;;;;;;;71.78;23.33;;;;;;;27.58;51.73;98794.56;5026730;28;20049;-72
2022/10/20 08:37:25;;;;;;;59.47;23.85;;;;;;;27.62;51.41;98779.81;5042736;28;20045;-72
2022/10/20 08:40:32;;;;;;;53.10;25.55;;;;;;;27.65;51.96;98781.09;5034528;28;20474;-72
2022/10/20 08:43:16;;;;;;;49.05;25.23;;;;;;;27.66;50.20;98783.53;5027399;28;20049;-71
2022/10/20 08:46:12;;;;;;;59.58;24.20;;;;;;;27.27;51.51;98765.22;5026644;28;20045;-72
2022/10/20 08:48:48;;;;;;;52.78;25.58;;;;;;;27.23;52.48;98769.72;5027358;28;20076;-71
2022/10/20 08:51:38;;;;;;;54.08;25.77;;;;;;;27.66;50.77;98768.94;5026870;28;20494;-72
2022/10/20 08:54:27;;;;;;;53.33;24.45;;;;;;;27.86;49.82;98762.75;5026656;28;20057;-72
2022/10/20 08:57:30;;;;;;;52.88;22.73;;;;;;;27.39;50.39;98768.13;5023818;28;20045;-71
2022/10/20 09:00:21;;;;;;;48.42;20.60;;;;;;;26.94;50.05;98758.19;5046454;28;20114;-71
2022/10/20 09:03:11;;;;;;;44.40;19.73;;;;;;;27.52;48.72;98755.34;5029574;28;20053;-72
2022/10/20 09:06:13;;;;;;;47.88;21.73;;;;;;;26.33;50.04;98751.66;5045808;28;20057;-72
2022/10/20 09:08:56;;;;;;;42.53;20.20;;;;;;;26.92;49.60;98754.13;5046845;28;20491;-71
2022/10/20 09:11:45;;;;;;;39.47;20.40;;;;;;;27.17;48.47;98743.47;5031812;28;20057;-70
2022/10/20 09:14:31;;;;;;;44.15;23.00;;;;;;;26.97;49.02;98759.50;5048006;28;20436;-71
2022/10/20 09:17:24;;;;;;;45.75;22.42;;;;;;;26.98;48.89;98752.84;5046274;28;20055;-70
2022/10/20 09:20:31;;;;;;;60.30;22.95;;;;;;;27.16;48.88;98742.66;5046344;28;20110;-73
2022/10/20 09:23:30;;;;;;;45.78;23.58;;;;;;;27.48;47.63;98757.94;5046137;28;20124;-71
2022/10/20 09:26:43;;;;;;;54.03;24.38;;;;;;;27.04;47.63;98750.75;5065920;28;20412;-71
2022/10/20 09:29:44;;;;;;;44.97;23.92;;;;;;;26.90;47.89;98757.22;5048682;28;20135;-72
2022/10/20 09:32:35;;;;;;;41.88;23.70;;;;;;;27.36;46.63;98767.97;5066011;28;20052;-70
2022/10/20 09:35:40;;;;;;;59.00;24.42;;;;;;;27.13;46.72;98776.34;5065976;28;20044;-71
2022/10/20 09:38:38;;;;;;;45.72;22.70;;;;;;;26.97;47.77;98773.25;5066765;28;20415;-73
2022/10/20 09:41:18;;;;;;;36.15;21.00;;;;;;;26.97;47.26;98773.25;5066520;28;20044;-71
2022/10/20 09:44:22;;;;;;;51.13;21.30;;;;;;;27.47;46.68;98781.09;5066885;28;20080;-70
2022/10/20 09:47:05;;;;;;;44.25;22.45;;;;;;;26.61;47.10;98788.06;5086675;28;20079;-70
2022/10/20 09:50:06;;;;;;;44.28;21.00;;;;;;;27.27;46.42;98776.25;5087346;28;20105;-72
2022/10/20 09:52:47;;;;;;;45.92;22.75;;;;;;;26.92;45.81;98777.00;5073921;28;20113;-70
2022/10/20 09:55:41;;;;;;;38.42;19.23;;;;;;;26.91;44.81;98772.59;5072676;28;20048;-70
2022/10/20 09:58:44;;;;;;;46.83;19.10;;;;;;;27.02;44.77;98777.78;5070680;28;20080;-72
2022/10/20 10:01:53;;;;;;;44.15;18.70;;;;;;;26.63;45.17;98771.22;5055425;28;20060;-68
2022/10/20 10:04:44;;;;;;;31.65;15.75;;;;;;;26.34;45.79;98776.09;5069944;28;20123;-72
2022/10/20 10:07:39;;;;;;;32.05;15.07;;;;;;;26.63;45.70;98773.97;5070284;28;20114;-71
2022/10/20 10:10:37;;;;;;;39.22;15.90;;;;;;;26.69;45.49;98770.78;5069915;28;20072;-72
2022/10/20 10:13:27;;;;;;;33.25;16.20;;;;;;;27.18;44.55;98772.66;5070027;28;20056;-71
2022/10/20 10:16:23;;;;;;;38.72;20.02;;;;;;;26.63;43.87;98788.53;5069103;28;20053;-71
2022/10/20 10:19:13;;;;;;;38.05;19.63;;;;;;;26.78;43.81;98779.03;5053943;28;20068;-71
2022/10/20 10:22:03;;;;;;;39.33;18.55;;;;;;;27.04;44.70;98781.88;5067899;28;20141;-70
2022/10/20 10:24:55;;;;;;;46.50;19.23;;;;;;;26.90;44.02;98778.41;5066165;28;20076;-73
2022/10/20 10:28:10;;;;;;;35.90;17.85;;;;;;;27.35;44.52;98778.19;5054484;28;20384;-71
2022/10/20 10:30:45;;;;;;;39.30;15.35;;;;;;;26.63;45.26;98785.78;5069705;28;20617;-71
2022/10/20 10:33:41;;;;;;;26.92;15.52;;;;;;;26.64;44.79;98775.63;5054206;28;20472;-71
2022/10/20 10:36:36;;;;;;;32.72;13.77;;;;;;;26.60;44.60;98780.94;5049077;28;20126;-73
2022/10/20 10:39:32;;;;;;;26.83;13.70;;;;;;;26.41;45.39;98792.16;5051988;28;20059;-71
2022/10/20 10:42:44;;;;;;;22.70;12.40;;;;;;;26.33;45.35;98793.75;5064854;28;20048;-71
2022/10/20 10:45:45;;;;;;;25.20;12.18;;;;;;;26.26;45.19;98798.88;5068769;28;20048;-71
2022/10/20 10:48:29;;;;;;;28.45;13.13;;;;;;;26.23;44.76;98796.75;5068881;28;20048;-71
2022/10/20 10:51:24;;;;;;;27.77;13.32;;;;;;;26.14;44.43;98799.47;5069354;28;20076;-69
2022/10/20 10:54:41;;;;;;;29.75;14.10;;;;;;;26.28;45.18;98791.13;5068776;28;20118;-71
2022/10/20 10:57:34;;;;;;;29.20;14.60;;;;;;;26.57;44.47;98787.03;5066342;28;20118;-70
2022/10/20 11:00:32;;;;;;;32.50;14.65;;;;;;;26.08;46.01;98789.75;5069074;28;20135;-71
2022/10/20 11:03:46;;;;;;;27.35;14.40;;;;;;;26.37;45.64;98785.69;5050090;28;20372;-70
2022/10/20 11:06:46;;;;;;;25.50;13.95;;;;;;;26.40;45.27;98789.72;5050940;28;20790;-71
2022/10/20 11:09:40;;;;;;;32.92;14.55;;;;;;;25.84;45.46;98791.97;5065403;28;20081;-69
2022/10/20 11:12:59;;;;;;;27.02;14.98;;;;;;;26.10;45.28;98795.75;5053643;28;20056;-70
2022/10/20 11:15:49;;;;;;;34.92;15.43;;;;;;;26.26;45.41;98787.88;5056497;28;20072;-72
2022/10/20 11:19:06;;;;;;;31.33;14.48;;;;;;;26.16;45.80;98786.22;5052385;28;20045;-70
2022/10/20 11:22:20;;;;;;;24.98;14.93;;;;;;;26.12;45.55;98792.66;5068494;28;20118;-71
2022/10/20 11:25:19;;;;;;;30.45;15.05;;;;;;;26.41;45.62;98788.59;5068130;28;20103;-70
2022/10/20 11:27:57;;;;;;;31.42;17.17;;;;;;;26.03;45.66;98798.13;5068527;28;20631;-70
2022/10/20 11:30:46;;;;;;;35.05;15.65;;;;;;;26.15;46.23;98792.03;5068500;28;20056;-70
2022/10/20 11:33:49;;;;;;;36.28;17.75;;;;;;;26.35;45.29;98804.44;5068777;28;20059;-70
2022/10/20 11:36:55;;;;;;;44.08;18.70;;;;;;;25.99;46.19;98802.63;5068543;28;20048;-70
2022/10/20 11:40:00;;;;;;;38.15;19.55;;;;;;;26.01;46.51;98802.31;5068395;28;20132;-70
2022/10/20 11:43:16;;;;;;;43.38;22.33;;;;;;;26.23;46.85;98810.50;5067670;28;20110;-70
2022/10/20 11:46:07;;;;;;;62.50;25.08;;;;;;;25.50;47.50;98813.38;5050219;28;20052;-70
2022/10/20 11:49:03;;;;;;;55.15;25.15;;;;;;;25.78;47.18;98818.78;5067564;28;20044;-70
2022/10/20 11:51:57;;;;;;;56.13;26.55;;;;;;;25.76;47.71;98808.09;5051295;28;20052;-70
2022/10/20 11:55:14;;;;;;;42.47;23.45;;;;;;;25.42;48.43;98822.38;5067743;28;20080;-69
2022/10/20 11:58:00;;;;;;;41.10;25.50;;;;;;;25.38;48.00;98813.94;5047878;28;20550;-70
2022/10/20 12:01:06;;;;;;;46.22;25.00;;;;;;;25.61;48.18;98826.91;5048001;28;20122;-70
2022/10/20 12:03:53;;;;;;;44.55;24.85;;;;;;;25.95;47.34;98826.38;5047212;28;20110;-70
2022/10/20 12:07:02;;;;;;;49.67;25.08;;;;;;;25.47;48.49;98818.69;5031669;28;20087;-70
2022/10/20 12:09:43;;;;;;;50.75;27.23;;;;;;;25.37;48.34;98834.28;5047470;28;20049;-70
2022/10/20 12:13:01;;;;;;;49.92;25.95;;;;;;;25.10;49.11;98842.53;5047250;28;20551;-71
2022/10/20 12:15:49;;;;;;;44.78;25.65;;;;;;;25.30;48.75;98850.38;5045744;28;20146;-70
2022/10/20 12:18:45;;;;;;;48.72;27.58;;;;;;;25.59;48.55;98846.44;5055132;28;20053;-70
2022/10/20 12:22:03;;;;;;;40.40;23.33;;;;;;;25.05;49.32;98848.97;5066808;28;20056;-70
2022/10/20 12:24:58;;;;;;;38.08;20.60;;;;;;;25.25;49.37;98850.47;5046945;28;20059;-70
2022/10/20 12:27:33;;;;;;;43.67;21.33;;;;;;;25.14;49.12;98858.09;5014772;28;20502;-70
2022/10/20 12:31:02;;;;;;;41.17;20.17;;;;;;;25.11;49.40;98861.47;5027070;28;20133;-70
2022/10/20 12:33:58;;;;;;;30.90;18.17;;;;;;;25.02;50.19;98871.53;5011728;28;20048;-70
2022/10/20 12:36:53;;;;;;;45.65;18.63;;;;;;;25.13;49.22;98872.94;5029332;28;20068;-69
2022/10/20 12:39:29;;;;;;;36.22;16.77;;;;;;;24.89;48.94;98875.09;5029203;28;20049;-70
2022/10/20 12:42:36;;;;;;;36.25;17.13;;;;;;;24.71;48.85;98874.88;5024354;28;20061;-70
2022/10/20 12:45:17;;;;;;;38.92;15.95;;;;;;;25.07;48.13;98879.69;5029001;28;20057;-70
2022/10/20 12:48:09;;;;;;;27.48;15.98;;;;;;;24.92;48.60;98882.72;5030858;28;20053;-70
2022/10/20 12:50:59;;;;;;;36.70;16.20;;;;;;;25.11;48.12;98888.13;5045438;28;20138;-69
2022/10/20 12:53:41;;;;;;;35.08;15.43;;;;;;;25.21;48.02;98885.16;5045691;28;20068;-70
2022/10/20 12:56:33;;;;;;;33.10;14.40;;;;;;;24.96;48.13;98894.72;5025415;28;20810;-70
2022/10/20 12:59:26;;;;;;;33.90;14.25;;;;;;;25.15;47.65;98892.69;5026579;28;20045;-70
2022/10/20 13:02:16;;;;;;;28.63;14.43;;;;;;;24.66;47.93;98899.66;5026821;28;20705;-70
2022/10/20 13:05:08;;;;;;;27.63;15.18;;;;;;;24.60;48.39;98900.88;5029267;28;20100;-70
2022/10/20 13:07:58;;;;;;;37.70;15.73;;;;;;;24.52;48.16;98902.38;5011618;28;20508;-69